Time;durP1;ratioP1;P1;durP2;ratioP2;P2;SDS_P1;SDS_P2;PMS_P1;PMS_P2;Temp;Humidity;BMP_temperature;BMP_pressure;BME280_temperature;BME280_humidity;BME280_pressure;Samples;Min_cycle;Max_cycle;Signal;HPM_P1;HPM_P2
2022/12/03 17:51:19;;;;;;;43.17;20.58;;;;;;;;;;6713385;19;25462;-77
2022/12/03 17:53:45;;;;;;;40.47;19.85;;;;;;;;;;7305583;19;20086;-75
2022/12/03 17:56:11;;;;;;;38.30;20.65;;;;;;;;;;7355911;19;20011;-78
2022/12/03 17:58:36;;;;;;;39.13;22.42;;;;;;;;;;7352563;19;20096;-77
2022/12/03 18:01:01;;;;;;;40.85;24.10;;;;;;;;;;7360827;19;20059;-77
2022/12/03 18:03:27;;;;;;;40.38;23.38;;;;;;;;;;7362916;19;20022;-76
2022/12/03 18:05:54;;;;;;;43.15;24.05;;;;;;;;;;7354345;19;20027;-77
2022/12/03 18:08:19;;;;;;;39.25;22.17;;;;;;;;;;7352979;19;20022;-77
2022/12/03 18:10:44;;;;;;;42.22;23.02;;;;;;;;;;7353350;19;20094;-78
2022/12/03 18:13:09;;;;;;;40.28;23.52;;;;;;;;;;7356513;19;20018;-77
2022/12/03 18:15:35;;;;;;;42.90;23.58;;;;;;;;;;7333207;19;20664;-77
2022/12/03 18:18:01;;;;;;;42.38;24.13;;;;;;;;;;7356641;19;20070;-77
2022/12/03 18:20:26;;;;;;;38.70;22.55;;;;;;;;;;7360609;19;20015;-77
2022/12/03 18:22:52;;;;;;;42.67;23.38;;;;;;;;;;7348328;19;20022;-76
2022/12/03 18:25:17;;;;;;;43.22;23.30;;;;;;;;;;7321929;19;20792;-77
2022/12/03 18:27:44;;;;;;;40.67;22.40;;;;;;;;;;7321688;19;20315;-77
2022/12/03 18:30:09;;;;;;;41.25;23.27;;;;;;;;;;7346612;19;20388;-76
2022/12/03 18:32:34;;;;;;;43.10;23.27;;;;;;;;;;7328004;19;20070;-76
2022/12/03 18:35:00;;;;;;;43.38;22.27;;;;;;;;;;7350457;19;20717;-76
2022/12/03 18:37:26;;;;;;;41.42;22.92;;;;;;;;;;7353468;19;20007;-76
2022/12/03 18:39:51;;;;;;;45.38;24.55;;;;;;;;;;7350386;19;20010;-78
2022/12/03 18:42:18;;;;;;;42.15;23.55;;;;;;;;;;7338060;19;20027;-77
2022/12/03 18:44:43;;;;;;;42.25;22.67;;;;;;;;;;7351851;19;20026;-76
2022/12/03 18:47:12;;;;;;;37.88;21.27;;;;;;;;;;7349272;19;20010;-77
2022/12/03 18:49:38;;;;;;;44.90;23.08;;;;;;;;;;7347184;19;20029;-77
2022/12/03 18:52:03;;;;;;;45.55;23.63;;;;;;;;;;7350354;19;19999;-77
2022/12/03 18:54:28;;;;;;;44.08;23.08;;;;;;;;;;7349648;19;20011;-78
2022/12/03 18:56:54;;;;;;;48.92;24.63;;;;;;;;;;7337896;19;20093;-77
2022/12/03 18:59:19;;;;;;;47.63;24.08;;;;;;;;;;7331732;19;20977;-76
2022/12/03 19:01:44;;;;;;;46.22;24.30;;;;;;;;;;7350408;19;20042;-77
2022/12/03 19:04:09;;;;;;;45.30;23.33;;;;;;;;;;7354312;19;20010;-78
2022/12/03 19:06:34;;;;;;;42.08;22.45;;;;;;;;;;7346899;19;20482;-78
2022/12/03 19:09:01;;;;;;;40.80;21.45;;;;;;;;;;7349425;19;20011;-78
2022/12/03 19:11:26;;;;;;;44.75;23.83;;;;;;;;;;7349633;19;20678;-78
2022/12/03 19:13:51;;;;;;;42.20;23.40;;;;;;;;;;7349214;19;20006;-77
2022/12/03 19:16:16;;;;;;;44.50;23.13;;;;;;;;;;7346741;19;20007;-78
2022/12/03 19:18:42;;;;;;;46.10;24.77;;;;;;;;;;7338421;19;20455;-78
2022/12/03 19:21:09;;;;;;;47.50;24.42;;;;;;;;;;7349185;19;20452;-77
2022/12/03 19:23:35;;;;;;;43.63;23.95;;;;;;;;;;7354469;19;20010;-77
2022/12/03 19:26:04;;;;;;;49.60;26.02;;;;;;;;;;7351004;19;20674;-78
2022/12/03 19:28:29;;;;;;;50.92;26.88;;;;;;;;;;7351892;19;20011;-77
2022/12/03 19:30:55;;;;;;;44.50;24.00;;;;;;;;;;7350653;19;20034;-77
2022/12/03 19:33:20;;;;;;;44.58;23.00;;;;;;;;;;7347981;19;20011;-78
2022/12/03 19:35:45;;;;;;;44.90;24.20;;;;;;;;;;7328021;19;20516;-78
2022/12/03 19:38:11;;;;;;;41.28;22.98;;;;;;;;;;7351810;19;19995;-78
2022/12/03 19:40:36;;;;;;;48.38;25.75;;;;;;;;;;7338889;19;20014;-77
2022/12/03 19:43:01;;;;;;;49.47;25.92;;;;;;;;;;7348385;19;20009;-76
2022/12/03 19:45:26;;;;;;;43.25;22.98;;;;;;;;;;7351654;19;20336;-77
2022/12/03 19:47:51;;;;;;;44.85;24.38;;;;;;;;;;7349045;19;20522;-77
2022/12/03 19:50:17;;;;;;;44.35;23.80;;;;;;;;;;7350893;19;20015;-77
2022/12/03 19:52:42;;;;;;;45.78;24.75;;;;;;;;;;7349684;19;20014;-77
2022/12/03 19:55:07;;;;;;;44.40;24.13;;;;;;;;;;7345432;19;20026;-76
2022/12/03 19:57:32;;;;;;;40.25;22.40;;;;;;;;;;7355750;19;20014;-77
2022/12/03 19:59:58;;;;;;;44.83;23.85;;;;;;;;;;7357297;19;20003;-76
2022/12/03 20:02:23;;;;;;;45.05;24.02;;;;;;;;;;7356265;19;20014;-76
2022/12/03 20:04:48;;;;;;;43.67;24.20;;;;;;;;;;7340489;19;20467;-76
2022/12/03 20:07:13;;;;;;;42.03;23.38;;;;;;;;;;7343909;19;20010;-78
2022/12/03 20:09:39;;;;;;;41.72;22.40;;;;;;;;;;7342628;19;20060;-77
2022/12/03 20:12:04;;;;;;;45.60;23.77;;;;;;;;;;7344620;19;20003;-77
2022/12/03 20:14:29;;;;;;;43.13;23.35;;;;;;;;;;7350733;19;20039;-78
2022/12/03 20:16:55;;;;;;;45.50;23.77;;;;;;;;;;7347665;19;20328;-77
2022/12/03 20:19:20;;;;;;;44.35;23.92;;;;;;;;;;7346185;19;20686;-76
2022/12/03 20:21:45;;;;;;;39.88;21.83;;;;;;;;;;7344017;19;20030;-77
2022/12/03 20:24:15;;;;;;;43.03;23.17;;;;;;;;;;7347107;19;20583;-77
2022/12/03 20:26:40;;;;;;;44.10;23.77;;;;;;;;;;7342487;19;20267;-76
2022/12/03 20:29:06;;;;;;;46.60;25.55;;;;;;;;;;7354353;19;20047;-78
2022/12/03 20:31:31;;;;;;;44.08;22.92;;;;;;;;;;7356697;19;20018;-77
2022/12/03 20:33:57;;;;;;;42.78;23.40;;;;;;;;;;7354918;19;20526;-77
2022/12/03 20:36:23;;;;;;;47.30;24.95;;;;;;;;;;7361177;19;20130;-77
2022/12/03 20:38:52;;;;;;;38.70;20.88;;;;;;;;;;7360401;19;20730;-77
2022/12/03 20:41:17;;;;;;;41.20;22.73;;;;;;;;;;7357045;19;20387;-77
2022/12/03 20:43:43;;;;;;;41.33;21.75;;;;;;;;;;7357492;19;20108;-77
2022/12/03 20:46:12;;;;;;;38.80;20.55;;;;;;;;;;7357304;19;20035;-76
2022/12/03 20:48:37;;;;;;;40.08;21.85;;;;;;;;;;7353073;19;20030;-75
2022/12/03 20:51:03;;;;;;;38.38;20.90;;;;;;;;;;7348487;19;20011;-77
2022/12/03 20:53:29;;;;;;;37.65;21.25;;;;;;;;;;7351553;19;20031;-76
2022/12/03 20:55:55;;;;;;;39.20;22.02;;;;;;;;;;7350040;19;20436;-76
2022/12/03 20:58:20;;;;;;;38.80;20.48;;;;;;;;;;7360223;19;20017;-76
2022/12/03 21:00:45;;;;;;;42.25;21.42;;;;;;;;;;7353535;19;20044;-77
2022/12/03 21:03:10;;;;;;;40.25;21.55;;;;;;;;;;7355940;19;20062;-77
2022/12/03 21:05:35;;;;;;;38.97;21.80;;;;;;;;;;7354070;19;20037;-77
2022/12/03 21:08:01;;;;;;;39.83;20.92;;;;;;;;;;7352036;19;20011;-79
2022/12/03 21:10:35;;;;;;;39.30;21.27;;;;;;;;;;7347490;19;20021;-77
2022/12/03 21:13:01;;;;;;;42.38;22.45;;;;;;;;;;7345181;19;20122;-77
2022/12/03 21:15:27;;;;;;;42.40;22.45;;;;;;;;;;7333952;19;20391;-77
2022/12/03 21:17:52;;;;;;;37.50;20.98;;;;;;;;;;7351405;19;20542;-77
2022/12/03 21:20:18;;;;;;;41.40;22.65;;;;;;;;;;7348453;19;20027;-78
2022/12/03 21:22:43;;;;;;;44.20;22.45;;;;;;;;;;7349930;19;20011;-77
2022/12/03 21:25:08;;;;;;;41.15;22.13;;;;;;;;;;7350874;19;20561;-77
2022/12/03 21:27:34;;;;;;;42.10;22.58;;;;;;;;;;7354138;19;20149;-77
2022/12/03 21:29:59;;;;;;;46.50;24.40;;;;;;;;;;7356284;19;20406;-77
2022/12/03 21:32:24;;;;;;;42.90;22.33;;;;;;;;;;7349300;19;20011;-76
2022/12/03 21:34:49;;;;;;;44.65;23.20;;;;;;;;;;7317445;19;20018;-77
2022/12/03 21:37:14;;;;;;;45.35;22.50;;;;;;;;;;7339603;19;19994;-77
2022/12/03 21:39:40;;;;;;;40.47;21.80;;;;;;;;;;7349737;19;20538;-76
2022/12/03 21:42:05;;;;;;;42.92;22.67;;;;;;;;;;7350717;19;20046;-78
2022/12/03 21:44:30;;;;;;;43.55;22.25;;;;;;;;;;7354229;19;20434;-77
2022/12/03 21:46:55;;;;;;;44.35;23.98;;;;;;;;;;7348531;19;20017;-78
2022/12/03 21:49:21;;;;;;;40.60;22.55;;;;;;;;;;7352590;19;20283;-77
2022/12/03 21:51:46;;;;;;;43.47;23.13;;;;;;;;;;7347463;19;20042;-78
2022/12/03 21:54:12;;;;;;;50.83;25.75;;;;;;;;;;7352240;19;20507;-77
2022/12/03 21:56:37;;;;;;;48.42;23.60;;;;;;;;;;7341307;19;20001;-77
2022/12/03 21:59:03;;;;;;;43.67;23.85;;;;;;;;;;7354432;19;20006;-77
2022/12/03 22:01:28;;;;;;;48.80;24.55;;;;;;;;;;7355324;19;20427;-77
2022/12/03 22:03:53;;;;;;;48.92;26.27;;;;;;;;;;7347668;19;20018;-78
2022/12/03 22:06:19;;;;;;;49.78;25.55;;;;;;;;;;7338395;19;20359;-77
2022/12/03 22:08:44;;;;;;;47.90;25.08;;;;;;;;;;7323144;19;20002;-77
2022/12/03 22:11:20;;;;;;;45.92;23.35;;;;;;;;;;7333276;19;20300;-77
2022/12/03 22:13:45;;;;;;;45.92;24.70;;;;;;;;;;7339276;19;20328;-77
2022/12/03 22:16:12;;;;;;;47.35;24.25;;;;;;;;;;7354489;19;20006;-78
2022/12/03 22:18:37;;;;;;;46.92;23.98;;;;;;;;;;7346369;19;20017;-78
2022/12/03 22:21:03;;;;;;;47.55;25.45;;;;;;;;;;7344304;19;20554;-78
2022/12/03 22:23:29;;;;;;;46.75;24.40;;;;;;;;;;7336300;19;20118;-77
2022/12/03 22:25:58;;;;;;;48.80;24.63;;;;;;;;;;7334746;19;20123;-77
2022/12/03 22:28:23;;;;;;;47.22;24.17;;;;;;;;;;7347275;19;20006;-77
2022/12/03 22:30:48;;;;;;;48.08;23.85;;;;;;;;;;7345503;19;20031;-77
2022/12/03 22:33:13;;;;;;;49.35;25.30;;;;;;;;;;7353837;19;20030;-78
2022/12/03 22:35:38;;;;;;;42.47;23.08;;;;;;;;;;7348098;19;20014;-77
2022/12/03 22:38:04;;;;;;;47.17;24.50;;;;;;;;;;7343927;19;20667;-78
2022/12/03 22:40:29;;;;;;;50.40;26.50;;;;;;;;;;7341081;19;20015;-77
2022/12/03 22:42:54;;;;;;;47.92;24.65;;;;;;;;;;7345007;19;20514;-75
2022/12/03 22:45:19;;;;;;;45.05;24.83;;;;;;;;;;7351227;19;20278;-77
2022/12/03 22:47:44;;;;;;;48.97;26.27;;;;;;;;;;7348355;19;20005;-78
2022/12/03 22:50:10;;;;;;;51.60;25.80;;;;;;;;;;7337326;19;20081;-78
2022/12/03 22:52:35;;;;;;;48.08;25.83;;;;;;;;;;7344426;19;20002;-77
2022/12/03 22:55:00;;;;;;;49.80;25.92;;;;;;;;;;7341345;19;20534;-75
2022/12/03 22:57:26;;;;;;;47.78;25.48;;;;;;;;;;7348822;19;20123;-77
2022/12/03 22:59:51;;;;;;;48.72;27.10;;;;;;;;;;7348278;19;20512;-76
2022/12/03 23:02:16;;;;;;;53.45;27.70;;;;;;;;;;7303118;19;20753;-75
2022/12/03 23:04:41;;;;;;;51.88;27.60;;;;;;;;;;7305757;19;20027;-77
2022/12/03 23:07:07;;;;;;;46.10;25.02;;;;;;;;;;7292294;19;20007;-78
2022/12/03 23:09:32;;;;;;;48.47;25.45;;;;;;;;;;7335849;19;20404;-77
2022/12/03 23:11:57;;;;;;;48.13;26.05;;;;;;;;;;7318692;19;20015;-76
2022/12/03 23:14:22;;;;;;;49.22;25.60;;;;;;;;;;7342457;19;20011;-75
2022/12/03 23:16:48;;;;;;;44.65;24.50;;;;;;;;;;7345157;19;20444;-76
2022/12/03 23:19:13;;;;;;;48.55;25.05;;;;;;;;;;7345880;19;20272;-77
2022/12/03 23:21:38;;;;;;;53.15;26.17;;;;;;;;;;7342479;19;20014;-77
2022/12/03 23:24:04;;;;;;;46.95;25.33;;;;;;;;;;7345178;19;20447;-77
2022/12/03 23:26:32;;;;;;;48.38;25.50;;;;;;;;;;7340044;19;20432;-76
2022/12/03 23:28:57;;;;;;;47.60;25.98;;;;;;;;;;7346888;19;20679;-77
2022/12/03 23:31:27;;;;;;;50.28;26.40;;;;;;;;;;7349262;19;20499;-77
2022/12/03 23:33:52;;;;;;;47.95;26.65;;;;;;;;;;7342958;19;20013;-77
2022/12/03 23:36:18;;;;;;;49.33;25.77;;;;;;;;;;7336296;19;20011;-77
2022/12/03 23:38:44;;;;;;;51.33;26.08;;;;;;;;;;7341524;19;20066;-77
2022/12/03 23:41:11;;;;;;;46.13;25.90;;;;;;;;;;7333351;19;20459;-77
2022/12/03 23:43:36;;;;;;;51.75;26.80;;;;;;;;;;7352333;19;20018;-75
2022/12/03 23:46:03;;;;;;;50.65;27.70;;;;;;;;;;7344675;19;20038;-77
2022/12/03 23:48:28;;;;;;;48.78;26.65;;;;;;;;;;7353315;19;19999;-76
2022/12/03 23:50:53;;;;;;;49.72;26.88;;;;;;;;;;7345379;19;20082;-76
2022/12/03 23:53:18;;;;;;;48.20;26.83;;;;;;;;;;7351572;19;20022;-77
2022/12/03 23:55:43;;;;;;;48.85;26.83;;;;;;;;;;7342640;19;20010;-77
2022/12/03 23:58:09;;;;;;;46.53;24.35;;;;;;;;;;7350943;19;20119;-77
